CheckWX is a tool to help pilots better visualize weather data.  It is not intended as a substitute for an official pre-flight weather briefing.

02:45:53 UTC

KCLS METAR
Chehalis-Centralia Airport
Chehalis, Washington, USA
Current

31 mins ago

KCLS 260215Z AUTO 31007KT 280V340 4SM HZ CLR 21/12 A3017 RMK AO2
Observed
Aug-26 @ 02:15 UTC
Wind
  • 310° at 7 KTS
Visibility
4 SM
Flight Rules
MVFR
Conditions
Haze
Cloud Levels
  • Clear skies
Temperature
21°C / 70°F
Dewpoint
12°C / 54°F
Humidity
57%
Altimeter
30.17" Hg
Pressure
1021.72 hPa
Previous

51 mins ago

KCLS 260155Z AUTO 33008G14KT 7SM CLR 22/13 A3017 RMK AO2
Observed
Aug-26 @ 01:55 UTC
Wind
  • 330° at 8 KTS
  • Gusting to 14 KTS
Visibility
7 SM
Flight Rules
VFR
Cloud Levels
  • Clear skies
Temperature
22°C / 72°F
Dewpoint
13°C / 55°F
Humidity
57%
Altimeter
30.17" Hg
Pressure
1021.72 hPa
Previous

1 hour ago

KCLS 260135Z AUTO 33008KT 8SM CLR 23/13 A3017 RMK AO2
Observed
Aug-26 @ 01:35 UTC
Wind
  • 330° at 8 KTS
Visibility
8 SM
Flight Rules
VFR
Cloud Levels
  • Clear skies
Temperature
23°C / 73°F
Dewpoint
13°C / 55°F
Humidity
53%
Altimeter
30.17" Hg
Pressure
1021.72 hPa